PHOGPHHI

Guest
Details From PHOG - Kahului
To PHHI - WHEELER AAF
Flight Number -
Tags generated
Created
Modified
Stats Distance 97 nm / 179 km
Max Altitude 10,300 ft / 3,139 m
Waypoints 4
Social Downloads 1
Likes 0
Share VATSIM

Download

Looking for another format? Having issues loading an existing format? Contact us
Advertisement - Login to hide

Notes

Basic altitude profile: - Ascent Rate: 2500ft/min - Ascent Speed: 250kts - Cruise Altitude: 35000ft - Cruise Speed: 420kts - Descent Rate: 1500ft/min - Descent Speed: 250kts Options: - Use NATs: yes - Use PACOTS: yes - Use low airways: yes - Use high airways: yes

Route

PHOG LORET V15 MKK PHHI

ID Type Via Altitude Latitude Longitude Leg Dist Tot Dist Heading (true) Name
O PHOG APT - 0 ft / 0 m 20.89897˚ -156.43046˚ - 0 nm - Kahului
LORET FIX - 5,500 ft / 1,676 m 20.99081˚ -156.69139˚ 15 nm 15 nm 291° / 291° -
MKK VOR V15 (AWY-LO) 10,300 ft / 3,139 m 21.13811˚ -157.16742˚ 28 nm 43 nm 288° / 288° MOLOKAI VORTAC
O PHHI APT - 0 ft / 0 m 21.48144˚ -158.03780˚ 52 nm 96 nm 293° / 293° WHEELER AAF

Altitude Profile

Advertisement - Login to hide

PHOG

Details ICAO PHOG (OGG)
Name Kahului
Region USA (Hawaii)
Timezone Pacific/Honolulu (UTC-10.0)
Stats Elevation 54 ft / 16 m (AMSL)
Location 20.898975° -156.430460°
Runways 2
Magnetic Variation 9.514° E

METAR

PHOG 230654Z 05012KT 10SM FEW050 22/20 A3008

Decode

TAF

TAF PHOG 230539Z 2306/2406 05015KT P6SM FEW030 SCT060 FM231200 05010KT P6SM FEW030 SCT060 FM232000 06019G25KT P6SM FEW030 SCT060 FM240500 06015KT P6SM FEW030 SCT060

Decode

Departure Runways

ID Width Length Bearing (true) Bearing (mag) Surface Threshold Offset Overrun Length
02 150 ft / 46 m 7,013 ft / 2,138 m 34.81° 25.30° Asphalt 0 ft / 0 m 0 ft / 0 m
05 150 ft / 46 m 4,989 ft / 1,521 m 64.91° 55.40° Asphalt 0 ft / 0 m 0 ft / 0 m
20 150 ft / 46 m 7,013 ft / 2,138 m 214.81° 205.30° Asphalt 0 ft / 0 m 0 ft / 0 m
23 150 ft / 46 m 4,989 ft / 1,521 m 244.91° 235.40° Asphalt 0 ft / 0 m 0 ft / 0 m

PHHI

Details ICAO PHHI (HHI)
Name WHEELER AAF
Region USA (Hawaii)
Timezone Pacific/Honolulu (UTC-10.0)
Stats Elevation 835 ft / 255 m (AMSL)
Location 21.481439° -158.037796°
Runways 1
Magnetic Variation 9.476° E

METAR

PHHI 230656Z AUTO 04009KT 10SM FEW028 BKN038 BKN047 23/18 A3008 RMK AO2 SLP176 T02290178 $

Decode

TAF

TAF PHHI 230700Z 2307/2413 05009KT 9999 SCT020 BKN050 QNH3001INS TEMPO 2321/2403 07010G15KT 8000 -SHRA BKN030 TX27/2400Z TN20/2316Z

Decode

Destination Runways

ID Width Length Bearing (true) Bearing (mag) Surface Threshold Offset Overrun Length
06 295 ft / 90 m 5,543 ft / 1,689 m 68.64° 59.16° Asphalt 584 ft / 178 m 0 ft / 0 m
24 295 ft / 90 m 5,543 ft / 1,689 m 248.64° 239.16° Asphalt 0 ft / 0 m 600 ft / 183 m

Popular Alternatives